sensor_id;sensor_type;location;lat;lon;timestamp;P1;durP1;ratioP1;P2;durP2;ratioP2
16510;SDS011;8368;48.772;8.754;2023-11-18T00:00:26;4.27;;;3.87;;
16510;SDS011;8368;48.772;8.754;2023-11-18T00:02:52;4.73;;;4.27;;
16510;SDS011;8368;48.772;8.754;2023-11-18T00:05:17;4.67;;;4.20;;
16510;SDS011;8368;48.772;8.754;2023-11-18T00:07:43;5.10;;;4.53;;
16510;SDS011;8368;48.772;8.754;2023-11-18T00:10:08;5.17;;;4.03;;
16510;SDS011;8368;48.772;8.754;2023-11-18T00:12:35;3.67;;;3.37;;
16510;SDS011;8368;48.772;8.754;2023-11-18T00:15:04;5.33;;;3.60;;
16510;SDS011;8368;48.772;8.754;2023-11-18T00:17:30;4.07;;;3.63;;
16510;SDS011;8368;48.772;8.754;2023-11-18T00:19:57;3.77;;;3.47;;
16510;SDS011;8368;48.772;8.754;2023-11-18T00:22:22;4.10;;;3.77;;
16510;SDS011;8368;48.772;8.754;2023-11-18T00:24:48;4.30;;;3.67;;
16510;SDS011;8368;48.772;8.754;2023-11-18T00:27:14;5.60;;;3.97;;
16510;SDS011;8368;48.772;8.754;2023-11-18T00:29:40;3.73;;;3.43;;
16510;SDS011;8368;48.772;8.754;2023-11-18T00:32:06;3.93;;;3.63;;
16510;SDS011;8368;48.772;8.754;2023-11-18T00:34:32;4.00;;;3.73;;
16510;SDS011;8368;48.772;8.754;2023-11-18T00:36:58;3.63;;;3.33;;
16510;SDS011;8368;48.772;8.754;2023-11-18T00:39:24;3.63;;;3.33;;
16510;SDS011;8368;48.772;8.754;2023-11-18T00:41:50;3.03;;;2.87;;
16510;SDS011;8368;48.772;8.754;2023-11-18T00:44:15;2.77;;;2.60;;
16510;SDS011;8368;48.772;8.754;2023-11-18T00:46:41;2.43;;;2.30;;
16510;SDS011;8368;48.772;8.754;2023-11-18T00:49:07;3.00;;;2.80;;
16510;SDS011;8368;48.772;8.754;2023-11-18T00:51:32;5.50;;;3.10;;
16510;SDS011;8368;48.772;8.754;2023-11-18T00:53:58;2.87;;;2.60;;
16510;SDS011;8368;48.772;8.754;2023-11-18T00:56:26;3.30;;;3.00;;
16510;SDS011;8368;48.772;8.754;2023-11-18T00:58:52;3.87;;;3.57;;
16510;SDS011;8368;48.772;8.754;2023-11-18T01:01:18;6.73;;;4.17;;
16510;SDS011;8368;48.772;8.754;2023-11-18T01:03:44;6.13;;;3.63;;
16510;SDS011;8368;48.772;8.754;2023-11-18T01:06:10;4.67;;;4.27;;
16510;SDS011;8368;48.772;8.754;2023-11-18T01:08:35;4.07;;;3.77;;
16510;SDS011;8368;48.772;8.754;2023-11-18T01:11:01;4.37;;;3.50;;
16510;SDS011;8368;48.772;8.754;2023-11-18T01:13:26;4.33;;;3.93;;
16510;SDS011;8368;48.772;8.754;2023-11-18T01:15:52;4.50;;;4.10;;
16510;SDS011;8368;48.772;8.754;2023-11-18T01:18:17;4.07;;;3.70;;
16510;SDS011;8368;48.772;8.754;2023-11-18T01:20:43;3.33;;;3.13;;
16510;SDS011;8368;48.772;8.754;2023-11-18T01:23:08;4.60;;;4.20;;
16510;SDS011;8368;48.772;8.754;2023-11-18T01:25:34;4.73;;;4.23;;
16510;SDS011;8368;48.772;8.754;2023-11-18T01:28:00;4.67;;;4.20;;
16510;SDS011;8368;48.772;8.754;2023-11-18T01:30:25;4.13;;;3.80;;
16510;SDS011;8368;48.772;8.754;2023-11-18T01:32:52;4.13;;;3.83;;
16510;SDS011;8368;48.772;8.754;2023-11-18T01:35:18;4.00;;;3.63;;
16510;SDS011;8368;48.772;8.754;2023-11-18T01:37:44;3.73;;;3.43;;
16510;SDS011;8368;48.772;8.754;2023-11-18T01:40:10;3.80;;;3.50;;
16510;SDS011;8368;48.772;8.754;2023-11-18T01:42:43;3.63;;;3.37;;
16510;SDS011;8368;48.772;8.754;2023-11-18T01:45:11;6.67;;;3.87;;
16510;SDS011;8368;48.772;8.754;2023-11-18T01:47:37;7.00;;;3.37;;
16510;SDS011;8368;48.772;8.754;2023-11-18T01:50:05;4.67;;;4.27;;
16510;SDS011;8368;48.772;8.754;2023-11-18T01:52:32;4.13;;;3.77;;
16510;SDS011;8368;48.772;8.754;2023-11-18T01:54:58;4.30;;;3.90;;
16510;SDS011;8368;48.772;8.754;2023-11-18T01:57:24;3.70;;;3.37;;
16510;SDS011;8368;48.772;8.754;2023-11-18T01:59:52;3.60;;;3.30;;
16510;SDS011;8368;48.772;8.754;2023-11-18T02:02:19;3.57;;;3.27;;
16510;SDS011;8368;48.772;8.754;2023-11-18T02:04:46;3.27;;;2.97;;
16510;SDS011;8368;48.772;8.754;2023-11-18T02:07:12;3.60;;;3.30;;
16510;SDS011;8368;48.772;8.754;2023-11-18T02:09:40;3.10;;;2.90;;
16510;SDS011;8368;48.772;8.754;2023-11-18T02:12:23;5.00;;;2.97;;
16510;SDS011;8368;48.772;8.754;2023-11-18T02:15:05;2.90;;;2.70;;
16510;SDS011;8368;48.772;8.754;2023-11-18T02:17:38;3.53;;;3.33;;
16510;SDS011;8368;48.772;8.754;2023-11-18T02:20:07;3.30;;;3.00;;
16510;SDS011;8368;48.772;8.754;2023-11-18T02:22:41;3.33;;;3.13;;
16510;SDS011;8368;48.772;8.754;2023-11-18T02:25:08;2.83;;;2.63;;
16510;SDS011;8368;48.772;8.754;2023-11-18T02:27:35;2.70;;;2.60;;
16510;SDS011;8368;48.772;8.754;2023-11-18T02:30:01;2.67;;;2.50;;
16510;SDS011;8368;48.772;8.754;2023-11-18T02:33:03;2.50;;;2.40;;
16510;SDS011;8368;48.772;8.754;2023-11-18T02:35:38;2.50;;;2.30;;
16510;SDS011;8368;48.772;8.754;2023-11-18T02:38:13;2.00;;;1.90;;
16510;SDS011;8368;48.772;8.754;2023-11-18T02:40:42;2.03;;;1.93;;
16510;SDS011;8368;48.772;8.754;2023-11-18T02:43:09;2.50;;;2.40;;
16510;SDS011;8368;48.772;8.754;2023-11-18T02:45:36;2.20;;;2.10;;
16510;SDS011;8368;48.772;8.754;2023-11-18T02:48:05;2.20;;;1.70;;
16510;SDS011;8368;48.772;8.754;2023-11-18T02:50:31;1.87;;;1.77;;
16510;SDS011;8368;48.772;8.754;2023-11-18T02:52:57;1.87;;;1.77;;
16510;SDS011;8368;48.772;8.754;2023-11-18T02:55:23;2.77;;;1.73;;
16510;SDS011;8368;48.772;8.754;2023-11-18T02:57:50;1.90;;;1.80;;
16510;SDS011;8368;48.772;8.754;2023-11-18T03:00:16;1.60;;;1.60;;
16510;SDS011;8368;48.772;8.754;2023-11-18T03:02:47;1.90;;;1.60;;
16510;SDS011;8368;48.772;8.754;2023-11-18T03:05:13;1.80;;;1.60;;
16510;SDS011;8368;48.772;8.754;2023-11-18T03:07:39;1.83;;;1.73;;
16510;SDS011;8368;48.772;8.754;2023-11-18T03:10:06;1.70;;;1.70;;
16510;SDS011;8368;48.772;8.754;2023-11-18T03:12:41;2.10;;;2.00;;
16510;SDS011;8368;48.772;8.754;2023-11-18T03:15:07;3.70;;;2.50;;
16510;SDS011;8368;48.772;8.754;2023-11-18T03:17:36;3.33;;;2.50;;
16510;SDS011;8368;48.772;8.754;2023-11-18T03:20:03;6.00;;;2.50;;
16510;SDS011;8368;48.772;8.754;2023-11-18T03:22:33;1.97;;;1.87;;
16510;SDS011;8368;48.772;8.754;2023-11-18T03:24:58;2.40;;;2.00;;
16510;SDS011;8368;48.772;8.754;2023-11-18T03:27:25;2.40;;;2.30;;
16510;SDS011;8368;48.772;8.754;2023-11-18T03:29:50;2.10;;;2.00;;
16510;SDS011;8368;48.772;8.754;2023-11-18T03:32:16;4.07;;;1.90;;
16510;SDS011;8368;48.772;8.754;2023-11-18T03:34:42;2.13;;;2.03;;
16510;SDS011;8368;48.772;8.754;2023-11-18T03:37:09;1.87;;;1.77;;
16510;SDS011;8368;48.772;8.754;2023-11-18T03:39:34;2.30;;;2.20;;
16510;SDS011;8368;48.772;8.754;2023-11-18T03:42:00;1.90;;;1.80;;
16510;SDS011;8368;48.772;8.754;2023-11-18T03:44:26;2.23;;;2.07;;
16510;SDS011;8368;48.772;8.754;2023-11-18T03:46:51;1.90;;;1.83;;
16510;SDS011;8368;48.772;8.754;2023-11-18T03:49:17;2.83;;;2.00;;
16510;SDS011;8368;48.772;8.754;2023-11-18T03:51:42;2.03;;;1.93;;
16510;SDS011;8368;48.772;8.754;2023-11-18T03:54:08;1.80;;;1.70;;
16510;SDS011;8368;48.772;8.754;2023-11-18T03:56:34;2.20;;;2.10;;
16510;SDS011;8368;48.772;8.754;2023-11-18T03:58:59;1.90;;;1.80;;
16510;SDS011;8368;48.772;8.754;2023-11-18T04:01:25;2.27;;;2.00;;
16510;SDS011;8368;48.772;8.754;2023-11-18T04:03:54;2.43;;;1.90;;
16510;SDS011;8368;48.772;8.754;2023-11-18T04:06:20;1.80;;;1.70;;
16510;SDS011;8368;48.772;8.754;2023-11-18T04:08:46;1.97;;;1.70;;
16510;SDS011;8368;48.772;8.754;2023-11-18T04:11:13;2.00;;;2.00;;
16510;SDS011;8368;48.772;8.754;2023-11-18T04:13:42;1.80;;;1.70;;
16510;SDS011;8368;48.772;8.754;2023-11-18T04:16:11;2.10;;;2.00;;
16510;SDS011;8368;48.772;8.754;2023-11-18T04:18:38;1.87;;;1.77;;
16510;SDS011;8368;48.772;8.754;2023-11-18T04:21:07;2.03;;;1.93;;
16510;SDS011;8368;48.772;8.754;2023-11-18T04:23:34;2.20;;;2.10;;
16510;SDS011;8368;48.772;8.754;2023-11-18T04:26:04;6.57;;;1.93;;
16510;SDS011;8368;48.772;8.754;2023-11-18T04:28:30;2.33;;;2.20;;
16510;SDS011;8368;48.772;8.754;2023-11-18T04:30:56;2.60;;;2.40;;
16510;SDS011;8368;48.772;8.754;2023-11-18T04:33:22;2.70;;;2.50;;
16510;SDS011;8368;48.772;8.754;2023-11-18T04:35:49;2.53;;;2.33;;
16510;SDS011;8368;48.772;8.754;2023-11-18T04:38:16;2.90;;;2.60;;
16510;SDS011;8368;48.772;8.754;2023-11-18T04:40:42;2.37;;;2.17;;
16510;SDS011;8368;48.772;8.754;2023-11-18T04:43:09;2.13;;;2.03;;
16510;SDS011;8368;48.772;8.754;2023-11-18T04:45:35;2.23;;;2.13;;
16510;SDS011;8368;48.772;8.754;2023-11-18T04:48:02;3.77;;;1.80;;
16510;SDS011;8368;48.772;8.754;2023-11-18T04:50:28;2.30;;;2.17;;
16510;SDS011;8368;48.772;8.754;2023-11-18T04:52:55;2.47;;;2.03;;
16510;SDS011;8368;48.772;8.754;2023-11-18T04:55:21;1.93;;;1.83;;
16510;SDS011;8368;48.772;8.754;2023-11-18T04:57:46;2.10;;;2.00;;
16510;SDS011;8368;48.772;8.754;2023-11-18T05:00:12;2.10;;;1.87;;
16510;SDS011;8368;48.772;8.754;2023-11-18T05:02:41;3.00;;;2.80;;
16510;SDS011;8368;48.772;8.754;2023-11-18T05:05:08;2.57;;;2.37;;
16510;SDS011;8368;48.772;8.754;2023-11-18T05:07:34;2.40;;;2.20;;
16510;SDS011;8368;48.772;8.754;2023-11-18T05:10:00;2.47;;;2.27;;
16510;SDS011;8368;48.772;8.754;2023-11-18T05:12:26;2.50;;;2.40;;
16510;SDS011;8368;48.772;8.754;2023-11-18T05:14:54;4.43;;;3.07;;
16510;SDS011;8368;48.772;8.754;2023-11-18T05:17:21;3.07;;;2.87;;
16510;SDS011;8368;48.772;8.754;2023-11-18T05:19:47;2.80;;;2.60;;
16510;SDS011;8368;48.772;8.754;2023-11-18T05:22:13;3.13;;;2.93;;
16510;SDS011;8368;48.772;8.754;2023-11-18T05:24:38;2.47;;;2.27;;
16510;SDS011;8368;48.772;8.754;2023-11-18T05:27:04;3.43;;;2.70;;
16510;SDS011;8368;48.772;8.754;2023-11-18T05:29:30;2.27;;;2.17;;
16510;SDS011;8368;48.772;8.754;2023-11-18T05:31:57;2.67;;;2.47;;
16510;SDS011;8368;48.772;8.754;2023-11-18T05:34:22;2.37;;;2.20;;
16510;SDS011;8368;48.772;8.754;2023-11-18T05:36:48;2.20;;;2.10;;
16510;SDS011;8368;48.772;8.754;2023-11-18T05:39:19;2.53;;;2.40;;
16510;SDS011;8368;48.772;8.754;2023-11-18T05:41:49;2.40;;;2.30;;
16510;SDS011;8368;48.772;8.754;2023-11-18T05:44:16;2.73;;;2.63;;
16510;SDS011;8368;48.772;8.754;2023-11-18T05:46:44;2.50;;;2.30;;
16510;SDS011;8368;48.772;8.754;2023-11-18T05:49:11;3.10;;;2.80;;
16510;SDS011;8368;48.772;8.754;2023-11-18T05:51:38;3.87;;;3.10;;
16510;SDS011;8368;48.772;8.754;2023-11-18T05:54:05;3.33;;;3.03;;
16510;SDS011;8368;48.772;8.754;2023-11-18T05:56:31;3.67;;;3.40;;
16510;SDS011;8368;48.772;8.754;2023-11-18T05:58:57;4.50;;;4.17;;
16510;SDS011;8368;48.772;8.754;2023-11-18T06:01:23;5.73;;;4.90;;
16510;SDS011;8368;48.772;8.754;2023-11-18T06:03:52;5.53;;;5.03;;
16510;SDS011;8368;48.772;8.754;2023-11-18T06:06:18;6.07;;;5.47;;
16510;SDS011;8368;48.772;8.754;2023-11-18T06:08:45;5.23;;;4.70;;
16510;SDS011;8368;48.772;8.754;2023-11-18T06:11:12;4.67;;;4.27;;
16510;SDS011;8368;48.772;8.754;2023-11-18T06:13:39;5.17;;;4.13;;
16510;SDS011;8368;48.772;8.754;2023-11-18T06:16:07;5.43;;;3.80;;
16510;SDS011;8368;48.772;8.754;2023-11-18T06:18:34;5.40;;;4.40;;
16510;SDS011;8368;48.772;8.754;2023-11-18T06:21:01;4.67;;;3.90;;
16510;SDS011;8368;48.772;8.754;2023-11-18T06:23:26;3.33;;;3.03;;
16510;SDS011;8368;48.772;8.754;2023-11-18T06:25:52;3.87;;;3.57;;
16510;SDS011;8368;48.772;8.754;2023-11-18T06:28:17;3.80;;;3.37;;
16510;SDS011;8368;48.772;8.754;2023-11-18T06:30:43;3.77;;;3.47;;
16510;SDS011;8368;48.772;8.754;2023-11-18T06:33:09;4.40;;;3.40;;
16510;SDS011;8368;48.772;8.754;2023-11-18T06:35:34;3.77;;;3.33;;
16510;SDS011;8368;48.772;8.754;2023-11-18T06:38:02;5.90;;;3.37;;
16510;SDS011;8368;48.772;8.754;2023-11-18T06:40:27;3.30;;;3.03;;
16510;SDS011;8368;48.772;8.754;2023-11-18T06:42:53;4.27;;;3.93;;
16510;SDS011;8368;48.772;8.754;2023-11-18T06:45:26;3.40;;;3.07;;
16510;SDS011;8368;48.772;8.754;2023-11-18T06:47:52;3.80;;;3.50;;
16510;SDS011;8368;48.772;8.754;2023-11-18T06:50:18;3.03;;;2.83;;
16510;SDS011;8368;48.772;8.754;2023-11-18T06:52:49;3.57;;;3.27;;
16510;SDS011;8368;48.772;8.754;2023-11-18T06:55:16;3.43;;;3.13;;
16510;SDS011;8368;48.772;8.754;2023-11-18T06:57:41;3.30;;;3.10;;
16510;SDS011;8368;48.772;8.754;2023-11-18T07:00:09;3.30;;;3.00;;
16510;SDS011;8368;48.772;8.754;2023-11-18T07:02:36;4.07;;;3.00;;
16510;SDS011;8368;48.772;8.754;2023-11-18T07:05:01;3.73;;;3.07;;
16510;SDS011;8368;48.772;8.754;2023-11-18T07:07:27;3.33;;;3.10;;
16510;SDS011;8368;48.772;8.754;2023-11-18T07:09:52;3.50;;;3.20;;
16510;SDS011;8368;48.772;8.754;2023-11-18T07:12:18;3.67;;;3.37;;
16510;SDS011;8368;48.772;8.754;2023-11-18T07:14:44;4.17;;;3.67;;
16510;SDS011;8368;48.772;8.754;2023-11-18T07:17:12;4.40;;;3.43;;
16510;SDS011;8368;48.772;8.754;2023-11-18T07:19:38;5.70;;;4.60;;
16510;SDS011;8368;48.772;8.754;2023-11-18T07:22:04;6.97;;;4.40;;
16510;SDS011;8368;48.772;8.754;2023-11-18T07:24:31;4.37;;;4.03;;
16510;SDS011;8368;48.772;8.754;2023-11-18T07:26:57;3.80;;;3.33;;
16510;SDS011;8368;48.772;8.754;2023-11-18T07:29:24;3.63;;;3.37;;
16510;SDS011;8368;48.772;8.754;2023-11-18T07:31:54;4.37;;;3.97;;
16510;SDS011;8368;48.772;8.754;2023-11-18T07:34:20;3.83;;;3.53;;
16510;SDS011;8368;48.772;8.754;2023-11-18T07:36:46;4.30;;;3.73;;
16510;SDS011;8368;48.772;8.754;2023-11-18T07:39:13;3.50;;;3.30;;
16510;SDS011;8368;48.772;8.754;2023-11-18T07:41:49;3.83;;;3.53;;
16510;SDS011;8368;48.772;8.754;2023-11-18T07:44:14;3.20;;;2.90;;
16510;SDS011;8368;48.772;8.754;2023-11-18T07:46:41;4.73;;;3.80;;
16510;SDS011;8368;48.772;8.754;2023-11-18T07:49:07;6.50;;;5.87;;
16510;SDS011;8368;48.772;8.754;2023-11-18T07:51:34;6.23;;;5.27;;
16510;SDS011;8368;48.772;8.754;2023-11-18T07:53:59;4.33;;;4.00;;
16510;SDS011;8368;48.772;8.754;2023-11-18T07:56:25;5.87;;;4.13;;
16510;SDS011;8368;48.772;8.754;2023-11-18T07:58:52;4.00;;;3.70;;
16510;SDS011;8368;48.772;8.754;2023-11-18T08:01:19;17.23;;;7.67;;
16510;SDS011;8368;48.772;8.754;2023-11-18T08:03:46;10.90;;;6.37;;
16510;SDS011;8368;48.772;8.754;2023-11-18T08:06:12;7.03;;;5.07;;
16510;SDS011;8368;48.772;8.754;2023-11-18T08:08:38;5.33;;;4.20;;
16510;SDS011;8368;48.772;8.754;2023-11-18T08:11:04;4.80;;;4.20;;
16510;SDS011;8368;48.772;8.754;2023-11-18T08:13:30;4.40;;;3.23;;
16510;SDS011;8368;48.772;8.754;2023-11-18T08:15:56;4.00;;;3.70;;
16510;SDS011;8368;48.772;8.754;2023-11-18T08:18:23;3.47;;;3.27;;
16510;SDS011;8368;48.772;8.754;2023-11-18T08:20:49;3.37;;;3.17;;
16510;SDS011;8368;48.772;8.754;2023-11-18T08:23:15;3.83;;;3.53;;
16510;SDS011;8368;48.772;8.754;2023-11-18T08:25:40;3.70;;;3.50;;
16510;SDS011;8368;48.772;8.754;2023-11-18T08:28:07;3.43;;;3.23;;
16510;SDS011;8368;48.772;8.754;2023-11-18T08:30:36;3.60;;;3.30;;
16510;SDS011;8368;48.772;8.754;2023-11-18T08:33:02;3.70;;;3.40;;
16510;SDS011;8368;48.772;8.754;2023-11-18T08:35:34;3.87;;;3.50;;
16510;SDS011;8368;48.772;8.754;2023-11-18T08:38:00;5.20;;;3.60;;
16510;SDS011;8368;48.772;8.754;2023-11-18T08:40:26;4.97;;;3.60;;
16510;SDS011;8368;48.772;8.754;2023-11-18T08:42:52;4.83;;;3.37;;
16510;SDS011;8368;48.772;8.754;2023-11-18T08:45:23;6.80;;;4.40;;
16510;SDS011;8368;48.772;8.754;2023-11-18T08:47:58;7.90;;;5.57;;
16510;SDS011;8368;48.772;8.754;2023-11-18T08:50:26;5.77;;;5.03;;
16510;SDS011;8368;48.772;8.754;2023-11-18T08:52:54;10.63;;;6.57;;
16510;SDS011;8368;48.772;8.754;2023-11-18T08:55:23;10.33;;;6.23;;
16510;SDS011;8368;48.772;8.754;2023-11-18T08:58:09;3.50;;;3.23;;
16510;SDS011;8368;48.772;8.754;2023-11-18T09:00:47;3.70;;;3.40;;
16510;SDS011;8368;48.772;8.754;2023-11-18T09:03:18;3.73;;;3.33;;
16510;SDS011;8368;48.772;8.754;2023-11-18T09:06:00;3.90;;;3.40;;
16510;SDS011;8368;48.772;8.754;2023-11-18T09:08:42;4.77;;;3.43;;
16510;SDS011;8368;48.772;8.754;2023-11-18T09:11:09;3.47;;;3.17;;
16510;SDS011;8368;48.772;8.754;2023-11-18T09:13:36;3.63;;;3.40;;
16510;SDS011;8368;48.772;8.754;2023-11-18T09:16:04;3.30;;;3.20;;
16510;SDS011;8368;48.772;8.754;2023-11-18T09:18:34;3.77;;;3.57;;
16510;SDS011;8368;48.772;8.754;2023-11-18T09:21:01;3.20;;;2.90;;
16510;SDS011;8368;48.772;8.754;2023-11-18T09:23:29;2.77;;;2.67;;
16510;SDS011;8368;48.772;8.754;2023-11-18T09:25:56;3.17;;;2.90;;
16510;SDS011;8368;48.772;8.754;2023-11-18T09:28:23;3.27;;;2.70;;
16510;SDS011;8368;48.772;8.754;2023-11-18T09:30:49;3.23;;;2.93;;
16510;SDS011;8368;48.772;8.754;2023-11-18T09:33:19;3.60;;;2.70;;
16510;SDS011;8368;48.772;8.754;2023-11-18T09:36:01;3.23;;;2.93;;
16510;SDS011;8368;48.772;8.754;2023-11-18T09:38:32;3.27;;;3.07;;
16510;SDS011;8368;48.772;8.754;2023-11-18T09:41:02;3.40;;;3.20;;
16510;SDS011;8368;48.772;8.754;2023-11-18T09:43:36;4.13;;;3.17;;
16510;SDS011;8368;48.772;8.754;2023-11-18T09:46:27;2.77;;;2.57;;
16510;SDS011;8368;48.772;8.754;2023-11-18T09:51:40;5.13;;;3.97;;
16510;SDS011;8368;48.772;8.754;2023-11-18T09:54:12;4.80;;;3.43;;
16510;SDS011;8368;48.772;8.754;2023-11-18T09:57:03;3.40;;;3.17;;
16510;SDS011;8368;48.772;8.754;2023-11-18T09:59:39;3.57;;;3.37;;
16510;SDS011;8368;48.772;8.754;2023-11-18T10:02:47;4.07;;;3.77;;
16510;SDS011;8368;48.772;8.754;2023-11-18T10:05:15;3.17;;;3.00;;
16510;SDS011;8368;48.772;8.754;2023-11-18T10:07:45;3.13;;;2.93;;
16510;SDS011;8368;48.772;8.754;2023-11-18T10:10:15;4.37;;;3.80;;
16510;SDS011;8368;48.772;8.754;2023-11-18T10:12:44;5.03;;;3.97;;
16510;SDS011;8368;48.772;8.754;2023-11-18T10:15:21;3.63;;;3.33;;
16510;SDS011;8368;48.772;8.754;2023-11-18T10:17:48;2.97;;;2.80;;
16510;SDS011;8368;48.772;8.754;2023-11-18T10:20:47;3.23;;;2.93;;
16510;SDS011;8368;48.772;8.754;2023-11-18T10:23:16;3.43;;;3.13;;
16510;SDS011;8368;48.772;8.754;2023-11-18T10:28:25;4.33;;;3.93;;
16510;SDS011;8368;48.772;8.754;2023-11-18T10:30:56;4.77;;;3.77;;
16510;SDS011;8368;48.772;8.754;2023-11-18T10:33:40;4.83;;;3.67;;
16510;SDS011;8368;48.772;8.754;2023-11-18T10:36:18;3.77;;;3.47;;
16510;SDS011;8368;48.772;8.754;2023-11-18T10:38:49;3.80;;;2.67;;
16510;SDS011;8368;48.772;8.754;2023-11-18T10:41:17;3.00;;;2.80;;
16510;SDS011;8368;48.772;8.754;2023-11-18T10:43:43;2.73;;;2.53;;
16510;SDS011;8368;48.772;8.754;2023-11-18T10:46:10;5.30;;;2.77;;
16510;SDS011;8368;48.772;8.754;2023-11-18T10:48:50;2.43;;;2.33;;
16510;SDS011;8368;48.772;8.754;2023-11-18T10:51:16;5.03;;;2.70;;
16510;SDS011;8368;48.772;8.754;2023-11-18T10:53:44;2.90;;;2.70;;
16510;SDS011;8368;48.772;8.754;2023-11-18T10:56:24;3.30;;;2.90;;
16510;SDS011;8368;48.772;8.754;2023-11-18T10:58:53;3.37;;;3.17;;
16510;SDS011;8368;48.772;8.754;2023-11-18T11:01:35;3.00;;;2.80;;
16510;SDS011;8368;48.772;8.754;2023-11-18T11:04:07;3.40;;;3.10;;
16510;SDS011;8368;48.772;8.754;2023-11-18T11:06:43;3.07;;;2.77;;
16510;SDS011;8368;48.772;8.754;2023-11-18T11:09:17;4.17;;;2.77;;
16510;SDS011;8368;48.772;8.754;2023-11-18T11:11:53;2.83;;;2.63;;
16510;SDS011;8368;48.772;8.754;2023-11-18T11:14:22;3.20;;;3.00;;
16510;SDS011;8368;48.772;8.754;2023-11-18T11:17:00;4.70;;;4.37;;
16510;SDS011;8368;48.772;8.754;2023-11-18T11:19:38;3.73;;;3.43;;
16510;SDS011;8368;48.772;8.754;2023-11-18T11:22:21;3.27;;;3.10;;
16510;SDS011;8368;48.772;8.754;2023-11-18T11:27:59;3.60;;;3.37;;
16510;SDS011;8368;48.772;8.754;2023-11-18T11:30:45;5.57;;;3.83;;
16510;SDS011;8368;48.772;8.754;2023-11-18T11:36:05;3.00;;;2.90;;
16510;SDS011;8368;48.772;8.754;2023-11-18T11:38:52;4.10;;;3.47;;
16510;SDS011;8368;48.772;8.754;2023-11-18T11:41:21;3.77;;;3.50;;
16510;SDS011;8368;48.772;8.754;2023-11-18T11:43:51;7.60;;;4.07;;
16510;SDS011;8368;48.772;8.754;2023-11-18T11:46:24;6.40;;;4.27;;
16510;SDS011;8368;48.772;8.754;2023-11-18T11:48:58;4.40;;;4.00;;
16510;SDS011;8368;48.772;8.754;2023-11-18T11:51:28;13.97;;;8.27;;
16510;SDS011;8368;48.772;8.754;2023-11-18T11:54:04;12.80;;;8.00;;
16510;SDS011;8368;48.772;8.754;2023-11-18T11:56:43;4.77;;;4.30;;
16510;SDS011;8368;48.772;8.754;2023-11-18T11:59:17;3.43;;;3.17;;
16510;SDS011;8368;48.772;8.754;2023-11-18T12:02:01;4.27;;;3.17;;
16510;SDS011;8368;48.772;8.754;2023-11-18T12:04:32;4.10;;;3.70;;
16510;SDS011;8368;48.772;8.754;2023-11-18T12:07:02;3.63;;;3.10;;
16510;SDS011;8368;48.772;8.754;2023-11-18T12:09:30;5.40;;;3.40;;
16510;SDS011;8368;48.772;8.754;2023-11-18T12:12:02;3.43;;;3.13;;
16510;SDS011;8368;48.772;8.754;2023-11-18T12:14:29;4.40;;;4.05;;
16510;SDS011;8368;48.772;8.754;2023-11-18T12:17:03;3.90;;;3.50;;
16510;SDS011;8368;48.772;8.754;2023-11-18T12:19:34;3.30;;;2.90;;
16510;SDS011;8368;48.772;8.754;2023-11-18T12:22:11;5.13;;;3.30;;
16510;SDS011;8368;48.772;8.754;2023-11-18T12:25:28;3.93;;;3.47;;
16510;SDS011;8368;48.772;8.754;2023-11-18T12:35:29;3.30;;;3.00;;
16510;SDS011;8368;48.772;8.754;2023-11-18T12:49:14;4.07;;;3.47;;
16510;SDS011;8368;48.772;8.754;2023-11-18T12:51:44;3.07;;;2.90;;
16510;SDS011;8368;48.772;8.754;2023-11-18T12:54:11;2.73;;;2.27;;
16510;SDS011;8368;48.772;8.754;2023-11-18T12:56:37;3.10;;;2.57;;
16510;SDS011;8368;48.772;8.754;2023-11-18T12:59:04;2.73;;;2.53;;
16510;SDS011;8368;48.772;8.754;2023-11-18T13:01:32;3.20;;;2.90;;
16510;SDS011;8368;48.772;8.754;2023-11-18T13:04:01;4.17;;;3.07;;
16510;SDS011;8368;48.772;8.754;2023-11-18T13:06:29;12.00;;;7.00;;
16510;SDS011;8368;48.772;8.754;2023-11-18T13:08:55;4.50;;;4.10;;
16510;SDS011;8368;48.772;8.754;2023-11-18T13:11:24;4.83;;;2.80;;
16510;SDS011;8368;48.772;8.754;2023-11-18T13:13:52;2.90;;;2.17;;
16510;SDS011;8368;48.772;8.754;2023-11-18T13:16:18;3.87;;;2.43;;
16510;SDS011;8368;48.772;8.754;2023-11-18T13:18:44;3.67;;;2.80;;
16510;SDS011;8368;48.772;8.754;2023-11-18T13:21:14;3.93;;;2.60;;
16510;SDS011;8368;48.772;8.754;2023-11-18T13:23:47;2.87;;;2.67;;
16510;SDS011;8368;48.772;8.754;2023-11-18T13:26:15;2.57;;;2.37;;
16510;SDS011;8368;48.772;8.754;2023-11-18T13:28:41;2.50;;;2.40;;
16510;SDS011;8368;48.772;8.754;2023-11-18T13:31:08;4.57;;;2.47;;
16510;SDS011;8368;48.772;8.754;2023-11-18T13:33:38;4.00;;;3.30;;
16510;SDS011;8368;48.772;8.754;2023-11-18T13:36:05;3.67;;;3.37;;
16510;SDS011;8368;48.772;8.754;2023-11-18T13:38:31;4.17;;;3.63;;
16510;SDS011;8368;48.772;8.754;2023-11-18T13:40:57;3.93;;;2.97;;
16510;SDS011;8368;48.772;8.754;2023-11-18T13:43:23;4.47;;;3.23;;
16510;SDS011;8368;48.772;8.754;2023-11-18T13:45:52;5.17;;;3.60;;
16510;SDS011;8368;48.772;8.754;2023-11-18T13:48:18;5.67;;;4.00;;
16510;SDS011;8368;48.772;8.754;2023-11-18T13:50:44;4.23;;;3.10;;
16510;SDS011;8368;48.772;8.754;2023-11-18T13:53:10;3.37;;;2.50;;
16510;SDS011;8368;48.772;8.754;2023-11-18T13:55:35;2.80;;;2.60;;
16510;SDS011;8368;48.772;8.754;2023-11-18T13:58:04;3.20;;;3.00;;
16510;SDS011;8368;48.772;8.754;2023-11-18T14:00:30;3.40;;;3.10;;
16510;SDS011;8368;48.772;8.754;2023-11-18T14:02:57;3.10;;;2.83;;
16510;SDS011;8368;48.772;8.754;2023-11-18T14:05:23;3.37;;;3.13;;
16510;SDS011;8368;48.772;8.754;2023-11-18T14:07:58;3.10;;;2.80;;
16510;SDS011;8368;48.772;8.754;2023-11-18T14:10:33;3.57;;;3.27;;
16510;SDS011;8368;48.772;8.754;2023-11-18T14:13:06;4.23;;;3.47;;
16510;SDS011;8368;48.772;8.754;2023-11-18T14:15:36;5.03;;;4.20;;
16510;SDS011;8368;48.772;8.754;2023-11-18T14:18:02;4.50;;;4.10;;
16510;SDS011;8368;48.772;8.754;2023-11-18T14:20:29;4.83;;;4.40;;
16510;SDS011;8368;48.772;8.754;2023-11-18T14:22:56;4.10;;;3.73;;
16510;SDS011;8368;48.772;8.754;2023-11-18T14:25:23;3.40;;;3.20;;
16510;SDS011;8368;48.772;8.754;2023-11-18T14:27:49;4.07;;;3.70;;
16510;SDS011;8368;48.772;8.754;2023-11-18T14:30:14;3.70;;;3.40;;
16510;SDS011;8368;48.772;8.754;2023-11-18T14:32:41;3.90;;;3.30;;
16510;SDS011;8368;48.772;8.754;2023-11-18T14:35:07;4.43;;;3.17;;
16510;SDS011;8368;48.772;8.754;2023-11-18T14:37:37;4.20;;;3.90;;
16510;SDS011;8368;48.772;8.754;2023-11-18T14:40:06;4.10;;;3.73;;
16510;SDS011;8368;48.772;8.754;2023-11-18T14:42:38;4.57;;;3.80;;
16510;SDS011;8368;48.772;8.754;2023-11-18T14:45:03;4.97;;;3.57;;
16510;SDS011;8368;48.772;8.754;2023-11-18T14:47:31;5.07;;;4.10;;
16510;SDS011;8368;48.772;8.754;2023-11-18T14:49:57;5.23;;;4.10;;
16510;SDS011;8368;48.772;8.754;2023-11-18T14:52:23;4.53;;;4.10;;
16510;SDS011;8368;48.772;8.754;2023-11-18T14:54:48;5.10;;;4.60;;
16510;SDS011;8368;48.772;8.754;2023-11-18T14:57:14;5.77;;;5.17;;
16510;SDS011;8368;48.772;8.754;2023-11-18T14:59:40;4.60;;;4.17;;
16510;SDS011;8368;48.772;8.754;2023-11-18T15:02:06;5.20;;;4.33;;
16510;SDS011;8368;48.772;8.754;2023-11-18T15:04:33;4.50;;;4.10;;
16510;SDS011;8368;48.772;8.754;2023-11-18T15:06:58;4.50;;;4.10;;
16510;SDS011;8368;48.772;8.754;2023-11-18T15:09:24;4.30;;;3.90;;
16510;SDS011;8368;48.772;8.754;2023-11-18T15:11:49;4.97;;;4.47;;
16510;SDS011;8368;48.772;8.754;2023-11-18T15:14:18;4.30;;;4.00;;
16510;SDS011;8368;48.772;8.754;2023-11-18T15:16:44;4.50;;;3.83;;
16510;SDS011;8368;48.772;8.754;2023-11-18T15:19:11;5.70;;;4.70;;
16510;SDS011;8368;48.772;8.754;2023-11-18T15:21:37;4.30;;;3.87;;
16510;SDS011;8368;48.772;8.754;2023-11-18T15:24:03;5.70;;;4.47;;
16510;SDS011;8368;48.772;8.754;2023-11-18T15:26:29;4.10;;;3.80;;
16510;SDS011;8368;48.772;8.754;2023-11-18T15:28:57;5.00;;;4.30;;
16510;SDS011;8368;48.772;8.754;2023-11-18T15:31:24;4.80;;;4.30;;
16510;SDS011;8368;48.772;8.754;2023-11-18T15:33:49;4.80;;;4.37;;
16510;SDS011;8368;48.772;8.754;2023-11-18T15:36:15;6.30;;;4.50;;
16510;SDS011;8368;48.772;8.754;2023-11-18T15:38:41;7.10;;;4.50;;